sensor_id;sensor_type;location;lat;lon;timestamp;P1;durP1;ratioP1;P2;durP2;ratioP2
21107;SDS011;10712;52.944;9.098;2022-09-09T00:04:02;11.00;;;10.00;;
21107;SDS011;10712;52.944;9.098;2022-09-09T00:09:29;10.73;;;9.73;;
21107;SDS011;10712;52.944;9.098;2022-09-09T00:12:10;10.55;;;9.55;;
21107;SDS011;10712;52.944;9.098;2022-09-09T00:14:55;9.95;;;9.05;;
21107;SDS011;10712;52.944;9.098;2022-09-09T00:17:44;10.35;;;9.38;;
21107;SDS011;10712;52.944;9.098;2022-09-09T00:20:28;13.23;;;11.10;;
21107;SDS011;10712;52.944;9.098;2022-09-09T00:28:33;12.40;;;11.20;;
21107;SDS011;10712;52.944;9.098;2022-09-09T00:31:31;13.82;;;12.43;;
21107;SDS011;10712;52.944;9.098;2022-09-09T00:33:58;14.38;;;13.00;;
21107;SDS011;10712;52.944;9.098;2022-09-09T00:36:58;11.85;;;10.75;;
21107;SDS011;10712;52.944;9.098;2022-09-09T00:39:37;14.73;;;13.20;;
21107;SDS011;10712;52.944;9.098;2022-09-09T00:42:31;12.90;;;11.57;;
21107;SDS011;10712;52.944;9.098;2022-09-09T00:47:56;11.15;;;10.05;;
21107;SDS011;10712;52.944;9.098;2022-09-09T00:56:07;12.15;;;10.45;;
21107;SDS011;10712;52.944;9.098;2022-09-09T00:58:42;12.95;;;11.65;;
21107;SDS011;10712;52.944;9.098;2022-09-09T01:01:17;12.13;;;11.02;;
21107;SDS011;10712;52.944;9.098;2022-09-09T01:03:45;12.35;;;11.15;;
21107;SDS011;10712;52.944;9.098;2022-09-09T01:06:33;11.80;;;10.75;;
21107;SDS011;10712;52.944;9.098;2022-09-09T01:09:22;11.77;;;10.57;;
21107;SDS011;10712;52.944;9.098;2022-09-09T01:14:50;14.15;;;10.80;;
21107;SDS011;10712;52.944;9.098;2022-09-09T01:17:55;13.18;;;10.90;;
21107;SDS011;10712;52.944;9.098;2022-09-09T01:27:12;15.45;;;8.77;;
21107;SDS011;10712;52.944;9.098;2022-09-09T01:29:42;10.57;;;9.57;;
21107;SDS011;10712;52.944;9.098;2022-09-09T01:38:38;10.82;;;9.82;;
21107;SDS011;10712;52.944;9.098;2022-09-09T01:41:05;11.32;;;10.23;;
21107;SDS011;10712;52.944;9.098;2022-09-09T01:43:42;12.02;;;10.75;;
21107;SDS011;10712;52.944;9.098;2022-09-09T01:46:08;10.27;;;9.30;;
21107;SDS011;10712;52.944;9.098;2022-09-09T01:48:36;11.55;;;9.75;;
21107;SDS011;10712;52.944;9.098;2022-09-09T01:51:05;10.02;;;9.00;;
21107;SDS011;10712;52.944;9.098;2022-09-09T01:53:33;9.88;;;8.80;;
21107;SDS011;10712;52.944;9.098;2022-09-09T02:02:03;7.72;;;6.95;;
21107;SDS011;10712;52.944;9.098;2022-09-09T02:05:11;6.70;;;6.05;;
21107;SDS011;10712;52.944;9.098;2022-09-09T02:08:26;9.25;;;7.88;;
21107;SDS011;10712;52.944;9.098;2022-09-09T02:11:14;9.00;;;8.15;;
21107;SDS011;10712;52.944;9.098;2022-09-09T02:14:13;7.43;;;6.72;;
21107;SDS011;10712;52.944;9.098;2022-09-09T02:16:52;7.65;;;6.95;;
21107;SDS011;10712;52.944;9.098;2022-09-09T02:20:05;8.63;;;7.82;;
21107;SDS011;10712;52.944;9.098;2022-09-09T02:22:52;9.73;;;8.05;;
21107;SDS011;10712;52.944;9.098;2022-09-09T02:25:22;11.70;;;8.63;;
21107;SDS011;10712;52.944;9.098;2022-09-09T02:27:57;8.13;;;7.43;;
21107;SDS011;10712;52.944;9.098;2022-09-09T02:30:27;8.10;;;7.28;;
21107;SDS011;10712;52.944;9.098;2022-09-09T02:32:57;9.00;;;7.35;;
21107;SDS011;10712;52.944;9.098;2022-09-09T02:35:41;6.97;;;6.38;;
21107;SDS011;10712;52.944;9.098;2022-09-09T02:38:10;8.13;;;7.43;;
21107;SDS011;10712;52.944;9.098;2022-09-09T02:40:44;8.25;;;7.55;;
21107;SDS011;10712;52.944;9.098;2022-09-09T02:43:11;11.15;;;7.20;;
21107;SDS011;10712;52.944;9.098;2022-09-09T02:45:45;8.50;;;6.75;;
21107;SDS011;10712;52.944;9.098;2022-09-09T02:48:30;6.95;;;6.25;;
21107;SDS011;10712;52.944;9.098;2022-09-09T02:53:56;9.23;;;6.93;;
21107;SDS011;10712;52.944;9.098;2022-09-09T02:57:05;7.35;;;6.65;;
21107;SDS011;10712;52.944;9.098;2022-09-09T02:59:46;7.32;;;6.47;;
21107;SDS011;10712;52.944;9.098;2022-09-09T03:02:15;6.43;;;5.65;;
21107;SDS011;10712;52.944;9.098;2022-09-09T03:04:44;6.90;;;5.28;;
21107;SDS011;10712;52.944;9.098;2022-09-09T03:07:16;5.90;;;5.30;;
21107;SDS011;10712;52.944;9.098;2022-09-09T03:09:43;6.50;;;5.90;;
21107;SDS011;10712;52.944;9.098;2022-09-09T03:12:09;6.88;;;5.70;;
21107;SDS011;10712;52.944;9.098;2022-09-09T03:14:37;6.60;;;5.90;;
21107;SDS011;10712;52.944;9.098;2022-09-09T03:17:04;7.90;;;5.80;;
21107;SDS011;10712;52.944;9.098;2022-09-09T03:19:36;8.68;;;5.13;;
21107;SDS011;10712;52.944;9.098;2022-09-09T03:22:03;6.30;;;5.70;;
21107;SDS011;10712;52.944;9.098;2022-09-09T03:24:31;13.80;;;5.85;;
21107;SDS011;10712;52.944;9.098;2022-09-09T03:26:57;9.60;;;5.70;;
21107;SDS011;10712;52.944;9.098;2022-09-09T03:29:23;6.65;;;5.25;;
21107;SDS011;10712;52.944;9.098;2022-09-09T03:31:52;7.10;;;4.88;;
21107;SDS011;10712;52.944;9.098;2022-09-09T03:34:19;7.82;;;4.75;;
21107;SDS011;10712;52.944;9.098;2022-09-09T03:36:45;8.50;;;5.25;;
21107;SDS011;10712;52.944;9.098;2022-09-09T03:39:11;5.35;;;4.53;;
21107;SDS011;10712;52.944;9.098;2022-09-09T03:41:40;6.45;;;4.68;;
21107;SDS011;10712;52.944;9.098;2022-09-09T03:44:06;4.72;;;4.32;;
21107;SDS011;10712;52.944;9.098;2022-09-09T03:46:37;7.22;;;4.25;;
21107;SDS011;10712;52.944;9.098;2022-09-09T03:49:03;6.10;;;4.50;;
21107;SDS011;10712;52.944;9.098;2022-09-09T03:51:30;5.28;;;3.83;;
21107;SDS011;10712;52.944;9.098;2022-09-09T03:53:56;4.15;;;3.75;;
21107;SDS011;10712;52.944;9.098;2022-09-09T03:56:25;4.30;;;3.90;;
21107;SDS011;10712;52.944;9.098;2022-09-09T03:58:52;6.13;;;4.38;;
21107;SDS011;10712;52.944;9.098;2022-09-09T04:01:18;8.57;;;4.30;;
21107;SDS011;10712;52.944;9.098;2022-09-09T04:03:44;4.80;;;2.90;;
21107;SDS011;10712;52.944;9.098;2022-09-09T04:06:11;4.45;;;3.67;;
21107;SDS011;10712;52.944;9.098;2022-09-09T04:08:39;17.63;;;4.43;;
21107;SDS011;10712;52.944;9.098;2022-09-09T04:11:07;3.58;;;3.28;;
21107;SDS011;10712;52.944;9.098;2022-09-09T04:13:34;6.35;;;3.17;;
21107;SDS011;10712;52.944;9.098;2022-09-09T04:16:07;4.00;;;3.03;;
21107;SDS011;10712;52.944;9.098;2022-09-09T04:18:36;7.03;;;2.90;;
21107;SDS011;10712;52.944;9.098;2022-09-09T04:21:03;3.78;;;2.63;;
21107;SDS011;10712;52.944;9.098;2022-09-09T04:23:31;5.25;;;2.95;;
21107;SDS011;10712;52.944;9.098;2022-09-09T04:25:59;3.85;;;2.45;;
21107;SDS011;10712;52.944;9.098;2022-09-09T04:28:28;5.28;;;2.38;;
21107;SDS011;10712;52.944;9.098;2022-09-09T04:31:03;3.97;;;2.00;;
21107;SDS011;10712;52.944;9.098;2022-09-09T04:33:38;2.42;;;2.17;;
21107;SDS011;10712;52.944;9.098;2022-09-09T04:36:04;4.30;;;2.03;;
21107;SDS011;10712;52.944;9.098;2022-09-09T04:38:31;6.55;;;2.80;;
21107;SDS011;10712;52.944;9.098;2022-09-09T04:40:56;3.25;;;2.17;;
21107;SDS011;10712;52.944;9.098;2022-09-09T04:43:23;2.42;;;2.05;;
21107;SDS011;10712;52.944;9.098;2022-09-09T04:45:53;3.05;;;2.53;;
21107;SDS011;10712;52.944;9.098;2022-09-09T04:48:22;1.95;;;1.80;;
21107;SDS011;10712;52.944;9.098;2022-09-09T04:53:40;3.58;;;1.90;;
21107;SDS011;10712;52.944;9.098;2022-09-09T04:56:11;6.85;;;2.50;;
21107;SDS011;10712;52.944;9.098;2022-09-09T04:58:47;5.57;;;2.50;;
21107;SDS011;10712;52.944;9.098;2022-09-09T05:01:15;6.75;;;2.55;;
21107;SDS011;10712;52.944;9.098;2022-09-09T05:03:51;4.38;;;1.83;;
21107;SDS011;10712;52.944;9.098;2022-09-09T05:06:21;3.67;;;2.10;;
21107;SDS011;10712;52.944;9.098;2022-09-09T05:08:51;4.88;;;2.30;;
21107;SDS011;10712;52.944;9.098;2022-09-09T05:11:23;2.55;;;2.03;;
21107;SDS011;10712;52.944;9.098;2022-09-09T05:14:20;3.35;;;2.40;;
21107;SDS011;10712;52.944;9.098;2022-09-09T05:16:46;4.28;;;2.22;;
21107;SDS011;10712;52.944;9.098;2022-09-09T05:19:13;2.20;;;1.83;;
21107;SDS011;10712;52.944;9.098;2022-09-09T05:21:45;2.15;;;1.95;;
21107;SDS011;10712;52.944;9.098;2022-09-09T05:24:13;7.13;;;2.30;;
21107;SDS011;10712;52.944;9.098;2022-09-09T05:26:39;3.63;;;2.17;;
21107;SDS011;10712;52.944;9.098;2022-09-09T05:29:06;4.85;;;2.85;;
21107;SDS011;10712;52.944;9.098;2022-09-09T05:31:33;2.25;;;2.03;;
21107;SDS011;10712;52.944;9.098;2022-09-09T05:34:03;4.40;;;3.38;;
21107;SDS011;10712;52.944;9.098;2022-09-09T05:36:28;4.72;;;3.10;;
21107;SDS011;10712;52.944;9.098;2022-09-09T05:38:55;6.10;;;2.58;;
21107;SDS011;10712;52.944;9.098;2022-09-09T05:41:23;3.92;;;2.60;;
21107;SDS011;10712;52.944;9.098;2022-09-09T05:43:51;2.60;;;2.30;;
21107;SDS011;10712;52.944;9.098;2022-09-09T05:46:23;2.75;;;1.95;;
21107;SDS011;10712;52.944;9.098;2022-09-09T05:48:51;3.75;;;2.47;;
21107;SDS011;10712;52.944;9.098;2022-09-09T05:51:24;2.50;;;2.15;;
21107;SDS011;10712;52.944;9.098;2022-09-09T05:53:55;5.28;;;2.50;;
21107;SDS011;10712;52.944;9.098;2022-09-09T05:56:26;3.63;;;2.10;;
21107;SDS011;10712;52.944;9.098;2022-09-09T05:58:56;5.20;;;2.45;;
21107;SDS011;10712;52.944;9.098;2022-09-09T06:01:26;2.83;;;2.35;;
21107;SDS011;10712;52.944;9.098;2022-09-09T06:03:56;4.80;;;2.45;;
21107;SDS011;10712;52.944;9.098;2022-09-09T06:06:24;2.53;;;2.25;;
21107;SDS011;10712;52.944;9.098;2022-09-09T06:09:14;2.83;;;2.35;;
21107;SDS011;10712;52.944;9.098;2022-09-09T06:11:41;3.95;;;2.40;;
21107;SDS011;10712;52.944;9.098;2022-09-09T06:14:08;2.28;;;1.85;;
21107;SDS011;10712;52.944;9.098;2022-09-09T06:16:36;3.75;;;2.35;;
21107;SDS011;10712;52.944;9.098;2022-09-09T06:19:04;7.57;;;3.20;;
21107;SDS011;10712;52.944;9.098;2022-09-09T06:21:34;7.68;;;3.45;;
21107;SDS011;10712;52.944;9.098;2022-09-09T06:24:04;2.72;;;2.25;;
21107;SDS011;10712;52.944;9.098;2022-09-09T06:26:33;4.30;;;3.17;;
21107;SDS011;10712;52.944;9.098;2022-09-09T06:29:03;3.53;;;2.40;;
21107;SDS011;10712;52.944;9.098;2022-09-09T06:31:30;6.90;;;2.75;;
21107;SDS011;10712;52.944;9.098;2022-09-09T06:34:11;3.15;;;2.38;;
21107;SDS011;10712;52.944;9.098;2022-09-09T06:36:40;6.80;;;2.33;;
21107;SDS011;10712;52.944;9.098;2022-09-09T06:39:07;3.17;;;2.20;;
21107;SDS011;10712;52.944;9.098;2022-09-09T06:41:36;4.32;;;2.22;;
21107;SDS011;10712;52.944;9.098;2022-09-09T06:44:05;1.88;;;1.77;;
21107;SDS011;10712;52.944;9.098;2022-09-09T06:46:38;5.60;;;2.65;;
21107;SDS011;10712;52.944;9.098;2022-09-09T06:49:05;5.93;;;3.00;;
21107;SDS011;10712;52.944;9.098;2022-09-09T06:51:36;5.13;;;2.58;;
21107;SDS011;10712;52.944;9.098;2022-09-09T06:54:10;5.20;;;2.78;;
21107;SDS011;10712;52.944;9.098;2022-09-09T06:56:39;2.60;;;2.40;;
21107;SDS011;10712;52.944;9.098;2022-09-09T06:59:12;4.05;;;2.53;;
21107;SDS011;10712;52.944;9.098;2022-09-09T07:01:40;4.80;;;2.80;;
21107;SDS011;10712;52.944;9.098;2022-09-09T07:04:13;5.15;;;2.72;;
21107;SDS011;10712;52.944;9.098;2022-09-09T07:06:44;2.50;;;2.20;;
21107;SDS011;10712;52.944;9.098;2022-09-09T07:09:15;2.17;;;1.83;;
21107;SDS011;10712;52.944;9.098;2022-09-09T07:11:49;5.35;;;2.45;;
21107;SDS011;10712;52.944;9.098;2022-09-09T07:14:21;5.60;;;2.00;;
21107;SDS011;10712;52.944;9.098;2022-09-09T07:16:52;4.22;;;2.28;;
21107;SDS011;10712;52.944;9.098;2022-09-09T07:19:18;3.05;;;1.92;;
21107;SDS011;10712;52.944;9.098;2022-09-09T07:21:47;4.50;;;2.13;;
21107;SDS011;10712;52.944;9.098;2022-09-09T07:24:17;2.50;;;2.05;;
21107;SDS011;10712;52.944;9.098;2022-09-09T07:26:43;5.32;;;1.95;;
21107;SDS011;10712;52.944;9.098;2022-09-09T07:29:09;3.30;;;1.88;;
21107;SDS011;10712;52.944;9.098;2022-09-09T07:31:39;4.43;;;2.33;;
21107;SDS011;10712;52.944;9.098;2022-09-09T07:34:10;3.85;;;2.40;;
21107;SDS011;10712;52.944;9.098;2022-09-09T07:36:37;13.32;;;2.47;;
21107;SDS011;10712;52.944;9.098;2022-09-09T07:39:11;1.70;;;1.58;;
21107;SDS011;10712;52.944;9.098;2022-09-09T07:41:42;7.22;;;2.20;;
21107;SDS011;10712;52.944;9.098;2022-09-09T07:46:44;3.60;;;2.45;;
21107;SDS011;10712;52.944;9.098;2022-09-09T07:49:14;3.05;;;2.47;;
21107;SDS011;10712;52.944;9.098;2022-09-09T07:51:42;5.73;;;2.50;;
21107;SDS011;10712;52.944;9.098;2022-09-09T07:54:13;3.58;;;2.63;;
21107;SDS011;10712;52.944;9.098;2022-09-09T07:56:43;5.88;;;2.63;;
21107;SDS011;10712;52.944;9.098;2022-09-09T07:59:11;7.07;;;2.45;;
21107;SDS011;10712;52.944;9.098;2022-09-09T08:01:41;3.08;;;2.28;;
21107;SDS011;10712;52.944;9.098;2022-09-09T08:04:17;4.93;;;2.17;;
21107;SDS011;10712;52.944;9.098;2022-09-09T08:06:47;3.22;;;2.28;;
21107;SDS011;10712;52.944;9.098;2022-09-09T08:09:19;6.32;;;3.15;;
21107;SDS011;10712;52.944;9.098;2022-09-09T08:11:47;1.73;;;1.63;;
21107;SDS011;10712;52.944;9.098;2022-09-09T08:14:15;7.00;;;2.75;;
21107;SDS011;10712;52.944;9.098;2022-09-09T08:16:42;2.30;;;2.10;;
21107;SDS011;10712;52.944;9.098;2022-09-09T08:19:13;3.70;;;2.25;;
21107;SDS011;10712;52.944;9.098;2022-09-09T08:21:44;7.43;;;2.22;;
21107;SDS011;10712;52.944;9.098;2022-09-09T08:24:12;4.47;;;2.67;;
21107;SDS011;10712;52.944;9.098;2022-09-09T08:26:46;3.85;;;2.58;;
21107;SDS011;10712;52.944;9.098;2022-09-09T08:29:15;3.08;;;1.95;;
21107;SDS011;10712;52.944;9.098;2022-09-09T08:31:44;2.05;;;1.85;;
21107;SDS011;10712;52.944;9.098;2022-09-09T08:36:42;2.95;;;2.17;;
21107;SDS011;10712;52.944;9.098;2022-09-09T08:39:12;4.72;;;2.30;;
21107;SDS011;10712;52.944;9.098;2022-09-09T08:52:55;9.07;;;2.90;;
21107;SDS011;10712;52.944;9.098;2022-09-09T09:07:46;2.85;;;2.40;;
21107;SDS011;10712;52.944;9.098;2022-09-09T09:13:08;6.75;;;3.05;;
21107;SDS011;10712;52.944;9.098;2022-09-09T09:15:58;4.90;;;2.92;;
21107;SDS011;10712;52.944;9.098;2022-09-09T09:18:35;7.85;;;3.28;;
21107;SDS011;10712;52.944;9.098;2022-09-09T09:23:56;5.78;;;3.13;;
21107;SDS011;10712;52.944;9.098;2022-09-09T09:26:32;5.95;;;2.83;;
21107;SDS011;10712;52.944;9.098;2022-09-09T09:29:07;8.15;;;3.47;;
21107;SDS011;10712;52.944;9.098;2022-09-09T09:31:39;7.35;;;3.10;;
21107;SDS011;10712;52.944;9.098;2022-09-09T09:34:13;4.30;;;2.95;;
21107;SDS011;10712;52.944;9.098;2022-09-09T09:36:41;8.23;;;2.93;;
21107;SDS011;10712;52.944;9.098;2022-09-09T09:39:31;2.60;;;2.03;;
21107;SDS011;10712;52.944;9.098;2022-09-09T09:42:11;5.93;;;2.55;;
21107;SDS011;10712;52.944;9.098;2022-09-09T09:44:41;3.63;;;2.42;;
21107;SDS011;10712;52.944;9.098;2022-09-09T09:47:18;5.20;;;2.30;;
21107;SDS011;10712;52.944;9.098;2022-09-09T09:50:17;4.85;;;2.50;;
21107;SDS011;10712;52.944;9.098;2022-09-09T09:52:56;6.93;;;3.05;;
21107;SDS011;10712;52.944;9.098;2022-09-09T09:55:28;5.33;;;2.27;;
21107;SDS011;10712;52.944;9.098;2022-09-09T09:58:02;3.33;;;2.25;;
21107;SDS011;10712;52.944;9.098;2022-09-09T10:00:47;6.53;;;2.42;;
21107;SDS011;10712;52.944;9.098;2022-09-09T10:03:27;9.55;;;2.90;;
21107;SDS011;10712;52.944;9.098;2022-09-09T10:05:58;6.13;;;2.65;;
21107;SDS011;10712;52.944;9.098;2022-09-09T10:08:27;5.80;;;2.25;;
21107;SDS011;10712;52.944;9.098;2022-09-09T10:13:38;6.17;;;1.90;;
21107;SDS011;10712;52.944;9.098;2022-09-09T10:16:28;4.80;;;1.60;;
21107;SDS011;10712;52.944;9.098;2022-09-09T10:19:18;7.40;;;2.40;;
21107;SDS011;10712;52.944;9.098;2022-09-09T10:27:31;5.73;;;1.63;;
21107;SDS011;10712;52.944;9.098;2022-09-09T10:30:28;2.22;;;1.75;;
21107;SDS011;10712;52.944;9.098;2022-09-09T10:36:39;5.80;;;2.00;;
21107;SDS011;10712;52.944;9.098;2022-09-09T10:47:51;7.60;;;2.25;;
21107;SDS011;10712;52.944;9.098;2022-09-09T10:56:44;6.10;;;2.00;;
21107;SDS011;10712;52.944;9.098;2022-09-09T10:59:23;2.28;;;1.75;;
21107;SDS011;10712;52.944;9.098;2022-09-09T11:02:05;3.22;;;1.45;;
21107;SDS011;10712;52.944;9.098;2022-09-09T11:05:02;4.78;;;1.92;;
21107;SDS011;10712;52.944;9.098;2022-09-09T11:21:59;8.80;;;2.55;;
21107;SDS011;10712;52.944;9.098;2022-09-09T11:31:27;5.13;;;2.70;;
21107;SDS011;10712;52.944;9.098;2022-09-09T11:40:15;7.22;;;3.45;;
21107;SDS011;10712;52.944;9.098;2022-09-09T11:43:03;5.70;;;3.60;;
21107;SDS011;10712;52.944;9.098;2022-09-09T11:45:38;6.78;;;3.65;;
21107;SDS011;10712;52.944;9.098;2022-09-09T11:48:22;5.03;;;3.30;;
21107;SDS011;10712;52.944;9.098;2022-09-09T11:51:13;3.85;;;3.47;;
21107;SDS011;10712;52.944;9.098;2022-09-09T11:56:32;7.53;;;3.20;;
21107;SDS011;10712;52.944;9.098;2022-09-09T11:59:05;14.75;;;4.07;;
21107;SDS011;10712;52.944;9.098;2022-09-09T12:01:55;7.28;;;3.30;;
21107;SDS011;10712;52.944;9.098;2022-09-09T12:04:38;7.03;;;3.03;;
21107;SDS011;10712;52.944;9.098;2022-09-09T12:09:52;7.05;;;3.72;;
21107;SDS011;10712;52.944;9.098;2022-09-09T12:12:27;6.20;;;3.83;;
21107;SDS011;10712;52.944;9.098;2022-09-09T12:17:43;5.88;;;3.20;;
21107;SDS011;10712;52.944;9.098;2022-09-09T12:20:14;8.80;;;3.53;;
21107;SDS011;10712;52.944;9.098;2022-09-09T12:22:54;4.43;;;3.67;;
21107;SDS011;10712;52.944;9.098;2022-09-09T12:31:34;5.32;;;3.45;;
21107;SDS011;10712;52.944;9.098;2022-09-09T12:34:35;4.20;;;2.90;;
21107;SDS011;10712;52.944;9.098;2022-09-09T12:39:47;3.65;;;2.75;;
21107;SDS011;10712;52.944;9.098;2022-09-09T12:42:20;4.80;;;3.20;;
21107;SDS011;10712;52.944;9.098;2022-09-09T12:44:51;5.53;;;3.15;;
21107;SDS011;10712;52.944;9.098;2022-09-09T12:47:19;4.32;;;2.85;;
21107;SDS011;10712;52.944;9.098;2022-09-09T12:49:51;7.47;;;3.55;;
21107;SDS011;10712;52.944;9.098;2022-09-09T12:52:23;7.13;;;2.80;;
21107;SDS011;10712;52.944;9.098;2022-09-09T12:54:55;4.45;;;2.00;;
21107;SDS011;10712;52.944;9.098;2022-09-09T12:57:24;5.88;;;1.73;;
21107;SDS011;10712;52.944;9.098;2022-09-09T13:00:03;5.25;;;1.50;;
21107;SDS011;10712;52.944;9.098;2022-09-09T13:02:46;4.40;;;1.20;;
21107;SDS011;10712;52.944;9.098;2022-09-09T13:05:19;4.28;;;1.30;;
21107;SDS011;10712;52.944;9.098;2022-09-09T13:08:02;3.97;;;1.38;;
21107;SDS011;10712;52.944;9.098;2022-09-09T13:10:32;3.63;;;1.10;;
21107;SDS011;10712;52.944;9.098;2022-09-09T13:13:13;5.28;;;1.20;;
21107;SDS011;10712;52.944;9.098;2022-09-09T13:15:48;2.65;;;1.02;;
21107;SDS011;10712;52.944;9.098;2022-09-09T13:18:29;2.90;;;1.10;;
21107;SDS011;10712;52.944;9.098;2022-09-09T13:21:04;2.70;;;1.15;;
21107;SDS011;10712;52.944;9.098;2022-09-09T13:23:31;2.38;;;1.17;;
21107;SDS011;10712;52.944;9.098;2022-09-09T13:26:01;3.63;;;1.20;;
21107;SDS011;10712;52.944;9.098;2022-09-09T13:28:46;1.90;;;1.05;;
21107;SDS011;10712;52.944;9.098;2022-09-09T13:31:20;1.80;;;1.05;;
21107;SDS011;10712;52.944;9.098;2022-09-09T13:33:54;0.70;;;0.70;;
21107;SDS011;10712;52.944;9.098;2022-09-09T13:36:30;2.03;;;0.80;;
21107;SDS011;10712;52.944;9.098;2022-09-09T13:39:00;1.98;;;0.70;;
21107;SDS011;10712;52.944;9.098;2022-09-09T13:41:29;2.35;;;0.88;;
21107;SDS011;10712;52.944;9.098;2022-09-09T13:44:02;1.50;;;0.95;;
21107;SDS011;10712;52.944;9.098;2022-09-09T13:46:33;2.17;;;0.93;;
21107;SDS011;10712;52.944;9.098;2022-09-09T13:51:36;4.93;;;1.50;;
21107;SDS011;10712;52.944;9.098;2022-09-09T13:54:05;5.13;;;1.02;;
21107;SDS011;10712;52.944;9.098;2022-09-09T13:56:34;4.28;;;1.40;;
21107;SDS011;10712;52.944;9.098;2022-09-09T13:59:02;2.90;;;1.30;;
21107;SDS011;10712;52.944;9.098;2022-09-09T14:01:34;4.32;;;1.30;;
21107;SDS011;10712;52.944;9.098;2022-09-09T14:04:00;4.03;;;1.73;;
21107;SDS011;10712;52.944;9.098;2022-09-09T14:06:26;2.45;;;0.98;;
21107;SDS011;10712;52.944;9.098;2022-09-09T14:08:54;4.18;;;1.33;;
21107;SDS011;10712;52.944;9.098;2022-09-09T14:11:20;2.70;;;1.30;;
21107;SDS011;10712;52.944;9.098;2022-09-09T14:13:47;2.13;;;1.35;;
21107;SDS011;10712;52.944;9.098;2022-09-09T14:16:15;2.88;;;1.23;;
21107;SDS011;10712;52.944;9.098;2022-09-09T14:18:44;6.35;;;1.77;;
21107;SDS011;10712;52.944;9.098;2022-09-09T14:21:11;3.17;;;1.60;;
21107;SDS011;10712;52.944;9.098;2022-09-09T14:23:38;2.22;;;1.52;;
21107;SDS011;10712;52.944;9.098;2022-09-09T14:26:04;6.07;;;2.20;;
21107;SDS011;10712;52.944;9.098;2022-09-09T14:28:31;5.05;;;1.90;;
21107;SDS011;10712;52.944;9.098;2022-09-09T14:31:01;3.92;;;2.00;;
21107;SDS011;10712;52.944;9.098;2022-09-09T14:33:29;9.82;;;3.90;;
21107;SDS011;10712;52.944;9.098;2022-09-09T14:35:58;6.35;;;2.75;;
21107;SDS011;10712;52.944;9.098;2022-09-09T14:38:34;7.78;;;3.40;;
21107;SDS011;10712;52.944;9.098;2022-09-09T14:41:06;4.30;;;2.40;;
21107;SDS011;10712;52.944;9.098;2022-09-09T14:43:39;7.53;;;2.60;;
21107;SDS011;10712;52.944;9.098;2022-09-09T14:46:06;12.43;;;2.65;;
21107;SDS011;10712;52.944;9.098;2022-09-09T14:48:38;6.93;;;2.20;;
21107;SDS011;10712;52.944;9.098;2022-09-09T14:53:46;9.75;;;2.53;;
21107;SDS011;10712;52.944;9.098;2022-09-09T14:56:16;4.30;;;1.88;;
21107;SDS011;10712;52.944;9.098;2022-09-09T14:58:46;3.92;;;1.50;;
21107;SDS011;10712;52.944;9.098;2022-09-09T15:01:13;5.95;;;2.17;;
21107;SDS011;10712;52.944;9.098;2022-09-09T15:03:43;8.38;;;2.63;;
21107;SDS011;10712;52.944;9.098;2022-09-09T15:06:15;10.48;;;2.33;;
21107;SDS011;10712;52.944;9.098;2022-09-09T15:12:46;6.45;;;1.80;;
21107;SDS011;10712;52.944;9.098;2022-09-09T15:15:12;6.15;;;2.17;;
21107;SDS011;10712;52.944;9.098;2022-09-09T15:17:38;5.32;;;2.15;;
21107;SDS011;10712;52.944;9.098;2022-09-09T15:20:04;5.95;;;1.75;;
21107;SDS011;10712;52.944;9.098;2022-09-09T15:22:31;2.90;;;1.33;;
21107;SDS011;10712;52.944;9.098;2022-09-09T15:24:57;8.00;;;2.20;;
21107;SDS011;10712;52.944;9.098;2022-09-09T15:27:23;7.28;;;1.98;;
21107;SDS011;10712;52.944;9.098;2022-09-09T15:29:49;5.55;;;1.90;;
21107;SDS011;10712;52.944;9.098;2022-09-09T15:32:17;5.40;;;1.85;;
21107;SDS011;10712;52.944;9.098;2022-09-09T15:34:43;2.97;;;1.40;;
21107;SDS011;10712;52.944;9.098;2022-09-09T15:37:10;4.97;;;2.20;;
21107;SDS011;10712;52.944;9.098;2022-09-09T15:39:38;4.47;;;2.30;;
21107;SDS011;10712;52.944;9.098;2022-09-09T15:42:05;4.95;;;1.73;;
21107;SDS011;10712;52.944;9.098;2022-09-09T15:44:41;4.30;;;1.67;;
21107;SDS011;10712;52.944;9.098;2022-09-09T15:47:10;5.35;;;1.75;;
21107;SDS011;10712;52.944;9.098;2022-09-09T15:49:38;4.03;;;2.10;;
21107;SDS011;10712;52.944;9.098;2022-09-09T15:52:04;6.20;;;1.60;;
21107;SDS011;10712;52.944;9.098;2022-09-09T15:54:31;2.00;;;1.60;;
21107;SDS011;10712;52.944;9.098;2022-09-09T15:57:00;1.90;;;1.25;;
21107;SDS011;10712;52.944;9.098;2022-09-09T15:59:30;2.67;;;1.42;;
21107;SDS011;10712;52.944;9.098;2022-09-09T16:01:57;1.55;;;1.40;;
21107;SDS011;10712;52.944;9.098;2022-09-09T16:04:24;4.10;;;1.60;;
21107;SDS011;10712;52.944;9.098;2022-09-09T16:06:55;2.65;;;1.35;;
21107;SDS011;10712;52.944;9.098;2022-09-09T16:09:25;2.70;;;0.93;;
21107;SDS011;10712;52.944;9.098;2022-09-09T16:11:52;1.65;;;1.10;;
21107;SDS011;10712;52.944;9.098;2022-09-09T16:14:21;2.58;;;1.20;;
21107;SDS011;10712;52.944;9.098;2022-09-09T16:16:47;1.35;;;0.85;;
21107;SDS011;10712;52.944;9.098;2022-09-09T16:19:13;4.40;;;1.25;;
21107;SDS011;10712;52.944;9.098;2022-09-09T16:21:40;4.37;;;1.80;;
21107;SDS011;10712;52.944;9.098;2022-09-09T16:24:10;1.20;;;0.90;;
21107;SDS011;10712;52.944;9.098;2022-09-09T16:26:40;5.00;;;1.05;;
21107;SDS011;10712;52.944;9.098;2022-09-09T16:29:11;3.67;;;1.30;;
21107;SDS011;10712;52.944;9.098;2022-09-09T16:31:39;5.13;;;1.30;;
21107;SDS011;10712;52.944;9.098;2022-09-09T16:34:05;2.22;;;1.00;;
21107;SDS011;10712;52.944;9.098;2022-09-09T16:36:33;1.23;;;1.13;;
21107;SDS011;10712;52.944;9.098;2022-09-09T16:39:05;1.95;;;1.00;;
21107;SDS011;10712;52.944;9.098;2022-09-09T16:41:36;2.03;;;1.10;;
21107;SDS011;10712;52.944;9.098;2022-09-09T16:44:04;1.40;;;1.30;;
21107;SDS011;10712;52.944;9.098;2022-09-09T16:46:35;1.58;;;1.10;;
21107;SDS011;10712;52.944;9.098;2022-09-09T16:49:09;2.42;;;1.15;;
21107;SDS011;10712;52.944;9.098;2022-09-09T16:51:39;1.08;;;0.90;;
21107;SDS011;10712;52.944;9.098;2022-09-09T16:54:09;1.55;;;1.10;;
21107;SDS011;10712;52.944;9.098;2022-09-09T16:56:38;2.33;;;1.17;;
21107;SDS011;10712;52.944;9.098;2022-09-09T16:59:10;11.02;;;1.30;;
21107;SDS011;10712;52.944;9.098;2022-09-09T17:01:40;1.23;;;1.10;;
21107;SDS011;10712;52.944;9.098;2022-09-09T17:04:11;1.70;;;0.90;;
21107;SDS011;10712;52.944;9.098;2022-09-09T17:06:48;2.83;;;1.20;;
21107;SDS011;10712;52.944;9.098;2022-09-09T17:09:17;1.55;;;1.45;;
21107;SDS011;10712;52.944;9.098;2022-09-09T17:11:45;2.08;;;1.30;;
21107;SDS011;10712;52.944;9.098;2022-09-09T17:14:13;2.50;;;1.92;;
21107;SDS011;10712;52.944;9.098;2022-09-09T17:16:42;2.80;;;1.60;;
21107;SDS011;10712;52.944;9.098;2022-09-09T17:19:08;1.77;;;1.45;;
21107;SDS011;10712;52.944;9.098;2022-09-09T17:21:35;2.08;;;1.42;;
21107;SDS011;10712;52.944;9.098;2022-09-09T17:24:03;2.47;;;1.45;;
21107;SDS011;10712;52.944;9.098;2022-09-09T17:26:30;4.68;;;2.17;;
21107;SDS011;10712;52.944;9.098;2022-09-09T17:28:58;5.57;;;1.48;;
21107;SDS011;10712;52.944;9.098;2022-09-09T17:31:26;3.47;;;1.55;;
21107;SDS011;10712;52.944;9.098;2022-09-09T17:33:54;3.17;;;1.30;;
21107;SDS011;10712;52.944;9.098;2022-09-09T17:38:56;2.17;;;1.13;;
21107;SDS011;10712;52.944;9.098;2022-09-09T17:41:32;1.50;;;1.00;;
21107;SDS011;10712;52.944;9.098;2022-09-09T17:44:01;2.88;;;1.10;;
21107;SDS011;10712;52.944;9.098;2022-09-09T17:46:31;2.72;;;1.02;;
21107;SDS011;10712;52.944;9.098;2022-09-09T17:49:05;2.20;;;1.02;;
21107;SDS011;10712;52.944;9.098;2022-09-09T17:51:37;1.95;;;0.93;;
21107;SDS011;10712;52.944;9.098;2022-09-09T17:54:06;1.50;;;1.10;;
21107;SDS011;10712;52.944;9.098;2022-09-09T17:56:36;1.98;;;1.15;;
21107;SDS011;10712;52.944;9.098;2022-09-09T17:59:04;3.25;;;1.08;;
21107;SDS011;10712;52.944;9.098;2022-09-09T18:01:33;3.47;;;1.20;;